sensor_id;sensor_type;location;lat;lon;timestamp;temperature;humidity
22416;DHT22;12204;50.600;4.608;2023-07-09T00:02:59;26.70;67.80
22416;DHT22;12204;50.600;4.608;2023-07-09T00:08:04;26.70;67.80
22416;DHT22;12204;50.600;4.608;2023-07-09T00:13:08;26.70;67.50
22416;DHT22;12204;50.600;4.608;2023-07-09T00:18:11;26.70;67.60
22416;DHT22;12204;50.600;4.608;2023-07-09T00:23:16;26.70;67.50
22416;DHT22;12204;50.600;4.608;2023-07-09T00:28:22;26.60;67.50
22416;DHT22;12204;50.600;4.608;2023-07-09T00:33:26;26.60;67.30
22416;DHT22;12204;50.600;4.608;2023-07-09T00:38:35;26.60;67.40
22416;DHT22;12204;50.600;4.608;2023-07-09T00:43:40;26.60;67.40
22416;DHT22;12204;50.600;4.608;2023-07-09T00:48:45;26.60;67.10
22416;DHT22;12204;50.600;4.608;2023-07-09T00:53:55;26.60;67.00
22416;DHT22;12204;50.600;4.608;2023-07-09T00:59:05;26.50;66.70
22416;DHT22;12204;50.600;4.608;2023-07-09T01:04:12;26.50;66.60
22416;DHT22;12204;50.600;4.608;2023-07-09T01:09:20;26.50;66.60
22416;DHT22;12204;50.600;4.608;2023-07-09T01:14:24;26.50;66.50
22416;DHT22;12204;50.600;4.608;2023-07-09T01:19:35;26.50;66.60
22416;DHT22;12204;50.600;4.608;2023-07-09T01:24:55;26.50;66.60
22416;DHT22;12204;50.600;4.608;2023-07-09T01:30:07;26.40;66.50
22416;DHT22;12204;50.600;4.608;2023-07-09T01:35:14;26.40;66.40
22416;DHT22;12204;50.600;4.608;2023-07-09T01:40:24;26.40;66.50
22416;DHT22;12204;50.600;4.608;2023-07-09T01:45:36;26.30;66.60
22416;DHT22;12204;50.600;4.608;2023-07-09T01:50:40;26.30;66.60
22416;DHT22;12204;50.600;4.608;2023-07-09T01:55:46;26.30;66.50
22416;DHT22;12204;50.600;4.608;2023-07-09T02:00:50;26.30;66.50
22416;DHT22;12204;50.600;4.608;2023-07-09T02:05:54;26.30;66.50
22416;DHT22;12204;50.600;4.608;2023-07-09T02:11:01;26.30;66.30
22416;DHT22;12204;50.600;4.608;2023-07-09T02:16:05;26.30;66.30
22416;DHT22;12204;50.600;4.608;2023-07-09T02:21:09;26.20;66.30
22416;DHT22;12204;50.600;4.608;2023-07-09T02:26:14;26.20;66.40
22416;DHT22;12204;50.600;4.608;2023-07-09T02:31:18;26.20;66.50
22416;DHT22;12204;50.600;4.608;2023-07-09T02:36:22;26.20;66.50
22416;DHT22;12204;50.600;4.608;2023-07-09T02:41:29;26.10;66.50
22416;DHT22;12204;50.600;4.608;2023-07-09T02:46:33;26.10;66.70
22416;DHT22;12204;50.600;4.608;2023-07-09T02:51:37;26.20;66.70
22416;DHT22;12204;50.600;4.608;2023-07-09T02:56:43;26.20;66.40
22416;DHT22;12204;50.600;4.608;2023-07-09T03:01:46;26.20;66.50
22416;DHT22;12204;50.600;4.608;2023-07-09T03:06:50;26.10;67.20
22416;DHT22;12204;50.600;4.608;2023-07-09T03:11:55;26.10;66.50
22416;DHT22;12204;50.600;4.608;2023-07-09T03:16:59;26.10;66.40
22416;DHT22;12204;50.600;4.608;2023-07-09T03:22:03;26.00;66.30
22416;DHT22;12204;50.600;4.608;2023-07-09T03:27:08;26.10;66.30
22416;DHT22;12204;50.600;4.608;2023-07-09T03:32:12;26.00;66.10
22416;DHT22;12204;50.600;4.608;2023-07-09T03:37:15;26.00;66.10
22416;DHT22;12204;50.600;4.608;2023-07-09T03:42:20;26.00;66.00
22416;DHT22;12204;50.600;4.608;2023-07-09T03:47:24;26.00;66.00
22416;DHT22;12204;50.600;4.608;2023-07-09T03:52:27;26.00;65.80
22416;DHT22;12204;50.600;4.608;2023-07-09T03:57:33;25.90;65.80
22416;DHT22;12204;50.600;4.608;2023-07-09T04:02:37;25.90;65.70
22416;DHT22;12204;50.600;4.608;2023-07-09T04:07:41;25.90;65.70
22416;DHT22;12204;50.600;4.608;2023-07-09T04:12:46;25.90;65.80
22416;DHT22;12204;50.600;4.608;2023-07-09T04:17:49;25.90;65.80
22416;DHT22;12204;50.600;4.608;2023-07-09T04:22:53;25.90;65.80
22416;DHT22;12204;50.600;4.608;2023-07-09T04:27:58;25.90;65.80
22416;DHT22;12204;50.600;4.608;2023-07-09T04:33:02;25.90;65.90
22416;DHT22;12204;50.600;4.608;2023-07-09T04:38:05;25.80;66.10
22416;DHT22;12204;50.600;4.608;2023-07-09T04:43:11;25.80;66.10
22416;DHT22;12204;50.600;4.608;2023-07-09T04:48:15;25.80;66.10
22416;DHT22;12204;50.600;4.608;2023-07-09T04:53:18;25.80;66.30
22416;DHT22;12204;50.600;4.608;2023-07-09T04:58:23;25.80;66.40
22416;DHT22;12204;50.600;4.608;2023-07-09T05:03:27;25.80;66.70
22416;DHT22;12204;50.600;4.608;2023-07-09T05:08:30;25.80;66.70
22416;DHT22;12204;50.600;4.608;2023-07-09T05:13:35;25.80;67.30
22416;DHT22;12204;50.600;4.608;2023-07-09T05:18:39;25.80;67.70
22416;DHT22;12204;50.600;4.608;2023-07-09T05:23:42;25.80;68.00
22416;DHT22;12204;50.600;4.608;2023-07-09T05:28:47;25.80;68.30
22416;DHT22;12204;50.600;4.608;2023-07-09T05:33:51;25.80;68.50
22416;DHT22;12204;50.600;4.608;2023-07-09T05:38:54;25.80;68.70
22416;DHT22;12204;50.600;4.608;2023-07-09T05:44:00;25.80;68.80
22416;DHT22;12204;50.600;4.608;2023-07-09T05:49:04;25.90;69.10
22416;DHT22;12204;50.600;4.608;2023-07-09T05:54:13;25.90;69.20
22416;DHT22;12204;50.600;4.608;2023-07-09T05:59:18;25.90;69.50
22416;DHT22;12204;50.600;4.608;2023-07-09T06:04:22;25.90;69.70
22416;DHT22;12204;50.600;4.608;2023-07-09T06:09:28;25.90;69.70
22416;DHT22;12204;50.600;4.608;2023-07-09T06:14:33;25.90;70.20
22416;DHT22;12204;50.600;4.608;2023-07-09T06:19:37;25.90;70.10
22416;DHT22;12204;50.600;4.608;2023-07-09T06:24:41;26.00;70.00
22416;DHT22;12204;50.600;4.608;2023-07-09T06:29:46;26.00;70.00
22416;DHT22;12204;50.600;4.608;2023-07-09T06:34:49;26.10;70.00
22416;DHT22;12204;50.600;4.608;2023-07-09T06:39:53;26.10;70.20
22416;DHT22;12204;50.600;4.608;2023-07-09T06:44:58;26.10;70.80
22416;DHT22;12204;50.600;4.608;2023-07-09T06:50:01;26.10;69.90
22416;DHT22;12204;50.600;4.608;2023-07-09T06:55:06;26.10;70.10
22416;DHT22;12204;50.600;4.608;2023-07-09T07:00:13;26.10;69.80
22416;DHT22;12204;50.600;4.608;2023-07-09T07:05:18;26.20;69.10
22416;DHT22;12204;50.600;4.608;2023-07-09T07:10:22;26.10;68.60
22416;DHT22;12204;50.600;4.608;2023-07-09T07:15:27;26.20;68.80
22416;DHT22;12204;50.600;4.608;2023-07-09T07:20:31;26.20;68.80
22416;DHT22;12204;50.600;4.608;2023-07-09T07:25:35;26.20;68.60
22416;DHT22;12204;50.600;4.608;2023-07-09T07:30:40;26.20;68.60
22416;DHT22;12204;50.600;4.608;2023-07-09T07:35:44;26.20;69.00
22416;DHT22;12204;50.600;4.608;2023-07-09T07:41:07;26.30;69.00
22416;DHT22;12204;50.600;4.608;2023-07-09T07:46:12;26.20;69.60
22416;DHT22;12204;50.600;4.608;2023-07-09T07:51:16;26.20;69.90
22416;DHT22;12204;50.600;4.608;2023-07-09T07:56:19;26.30;68.90
22416;DHT22;12204;50.600;4.608;2023-07-09T08:01:24;26.30;69.10
22416;DHT22;12204;50.600;4.608;2023-07-09T08:06:28;26.30;69.20
22416;DHT22;12204;50.600;4.608;2023-07-09T08:11:33;26.30;69.20
22416;DHT22;12204;50.600;4.608;2023-07-09T08:16:38;26.30;68.90
22416;DHT22;12204;50.600;4.608;2023-07-09T08:21:42;26.30;68.60
22416;DHT22;12204;50.600;4.608;2023-07-09T08:26:45;26.30;68.60
22416;DHT22;12204;50.600;4.608;2023-07-09T08:31:50;26.30;68.40
22416;DHT22;12204;50.600;4.608;2023-07-09T08:36:54;26.30;68.20
22416;DHT22;12204;50.600;4.608;2023-07-09T08:42:00;26.30;68.10
22416;DHT22;12204;50.600;4.608;2023-07-09T08:47:14;26.30;68.50
22416;DHT22;12204;50.600;4.608;2023-07-09T08:52:31;26.40;68.80
22416;DHT22;12204;50.600;4.608;2023-07-09T08:57:40;26.40;69.00
22416;DHT22;12204;50.600;4.608;2023-07-09T09:02:51;26.40;69.10
22416;DHT22;12204;50.600;4.608;2023-07-09T09:08:02;26.40;69.30
22416;DHT22;12204;50.600;4.608;2023-07-09T09:13:25;26.40;69.40
22416;DHT22;12204;50.600;4.608;2023-07-09T09:18:37;26.50;69.60
22416;DHT22;12204;50.600;4.608;2023-07-09T09:23:48;26.50;69.50
22416;DHT22;12204;50.600;4.608;2023-07-09T09:28:55;26.50;69.50
22416;DHT22;12204;50.600;4.608;2023-07-09T09:34:00;26.50;69.40
22416;DHT22;12204;50.600;4.608;2023-07-09T09:39:03;26.50;69.20
22416;DHT22;12204;50.600;4.608;2023-07-09T09:44:18;26.60;69.70
22416;DHT22;12204;50.600;4.608;2023-07-09T09:49:24;26.60;70.00
22416;DHT22;12204;50.600;4.608;2023-07-09T09:54:28;26.60;69.60
22416;DHT22;12204;50.600;4.608;2023-07-09T09:59:35;26.60;69.60
22416;DHT22;12204;50.600;4.608;2023-07-09T10:04:41;26.70;70.00
22416;DHT22;12204;50.600;4.608;2023-07-09T10:09:50;26.70;69.80
22416;DHT22;12204;50.600;4.608;2023-07-09T10:14:58;26.70;70.00
22416;DHT22;12204;50.600;4.608;2023-07-09T10:20:18;26.70;70.50
22416;DHT22;12204;50.600;4.608;2023-07-09T10:25:33;26.70;71.10
22416;DHT22;12204;50.600;4.608;2023-07-09T10:30:49;26.80;71.90
22416;DHT22;12204;50.600;4.608;2023-07-09T10:36:03;26.80;72.50
22416;DHT22;12204;50.600;4.608;2023-07-09T10:41:30;26.80;71.90
22416;DHT22;12204;50.600;4.608;2023-07-09T10:46:38;26.80;70.80
22416;DHT22;12204;50.600;4.608;2023-07-09T10:51:49;26.80;70.80
22416;DHT22;12204;50.600;4.608;2023-07-09T10:56:58;26.80;71.20
22416;DHT22;12204;50.600;4.608;2023-07-09T11:02:15;26.80;71.40
22416;DHT22;12204;50.600;4.608;2023-07-09T11:07:27;26.80;71.00
22416;DHT22;12204;50.600;4.608;2023-07-09T11:12:37;26.80;71.00
22416;DHT22;12204;50.600;4.608;2023-07-09T11:17:46;26.80;70.80
22416;DHT22;12204;50.600;4.608;2023-07-09T11:22:53;26.80;70.30
22416;DHT22;12204;50.600;4.608;2023-07-09T11:28:06;26.80;70.00
22416;DHT22;12204;50.600;4.608;2023-07-09T11:33:17;26.80;69.90
22416;DHT22;12204;50.600;4.608;2023-07-09T11:38:38;26.80;70.00
22416;DHT22;12204;50.600;4.608;2023-07-09T11:43:48;26.70;69.70
22416;DHT22;12204;50.600;4.608;2023-07-09T11:48:52;26.70;69.60
22416;DHT22;12204;50.600;4.608;2023-07-09T11:54:00;26.70;69.50
22416;DHT22;12204;50.600;4.608;2023-07-09T11:59:05;26.70;69.50
22416;DHT22;12204;50.600;4.608;2023-07-09T12:04:13;26.70;69.90
22416;DHT22;12204;50.600;4.608;2023-07-09T12:09:20;26.70;70.20
22416;DHT22;12204;50.600;4.608;2023-07-09T12:14:24;26.80;70.20
22416;DHT22;12204;50.600;4.608;2023-07-09T12:19:30;26.70;70.60
22416;DHT22;12204;50.600;4.608;2023-07-09T12:24:42;26.60;72.60
22416;DHT22;12204;50.600;4.608;2023-07-09T12:29:47;26.60;73.60
22416;DHT22;12204;50.600;4.608;2023-07-09T12:34:51;26.60;73.50
22416;DHT22;12204;50.600;4.608;2023-07-09T12:39:59;26.60;73.30
22416;DHT22;12204;50.600;4.608;2023-07-09T12:45:05;26.60;72.90
22416;DHT22;12204;50.600;4.608;2023-07-09T12:50:22;26.70;72.80
22416;DHT22;12204;50.600;4.608;2023-07-09T12:55:40;26.70;72.60
22416;DHT22;12204;50.600;4.608;2023-07-09T13:00:48;26.70;72.50
22416;DHT22;12204;50.600;4.608;2023-07-09T13:05:55;26.70;72.40
22416;DHT22;12204;50.600;4.608;2023-07-09T13:11:02;26.70;72.30
22416;DHT22;12204;50.600;4.608;2023-07-09T13:16:06;26.80;72.40
22416;DHT22;12204;50.600;4.608;2023-07-09T13:21:15;26.80;72.20
22416;DHT22;12204;50.600;4.608;2023-07-09T13:26:22;26.80;72.20
22416;DHT22;12204;50.600;4.608;2023-07-09T13:31:25;26.80;72.10
22416;DHT22;12204;50.600;4.608;2023-07-09T13:36:29;26.80;72.00
22416;DHT22;12204;50.600;4.608;2023-07-09T13:41:34;26.80;72.10
22416;DHT22;12204;50.600;4.608;2023-07-09T13:46:39;26.80;72.20
22416;DHT22;12204;50.600;4.608;2023-07-09T13:51:43;26.80;72.40
22416;DHT22;12204;50.600;4.608;2023-07-09T13:56:49;26.80;72.20
22416;DHT22;12204;50.600;4.608;2023-07-09T14:01:55;26.80;72.20
22416;DHT22;12204;50.600;4.608;2023-07-09T14:07:01;26.80;72.20
22416;DHT22;12204;50.600;4.608;2023-07-09T14:12:08;26.80;72.30
22416;DHT22;12204;50.600;4.608;2023-07-09T14:17:13;26.90;72.30
22416;DHT22;12204;50.600;4.608;2023-07-09T14:22:32;26.90;72.40
22416;DHT22;12204;50.600;4.608;2023-07-09T14:27:39;26.90;72.20
22416;DHT22;12204;50.600;4.608;2023-07-09T14:32:42;26.90;72.10
22416;DHT22;12204;50.600;4.608;2023-07-09T14:37:49;26.90;72.20
22416;DHT22;12204;50.600;4.608;2023-07-09T14:42:56;27.00;72.30
22416;DHT22;12204;50.600;4.608;2023-07-09T14:48:01;27.00;72.20
22416;DHT22;12204;50.600;4.608;2023-07-09T14:53:13;27.10;72.20
22416;DHT22;12204;50.600;4.608;2023-07-09T14:58:21;27.10;72.00
22416;DHT22;12204;50.600;4.608;2023-07-09T15:03:26;27.20;72.20
22416;DHT22;12204;50.600;4.608;2023-07-09T15:08:31;27.20;71.90
22416;DHT22;12204;50.600;4.608;2023-07-09T15:13:36;27.20;71.30
22416;DHT22;12204;50.600;4.608;2023-07-09T15:18:40;27.30;71.00
22416;DHT22;12204;50.600;4.608;2023-07-09T15:23:43;27.30;70.90
22416;DHT22;12204;50.600;4.608;2023-07-09T15:28:48;27.40;70.70
22416;DHT22;12204;50.600;4.608;2023-07-09T15:33:52;27.30;70.40
22416;DHT22;12204;50.600;4.608;2023-07-09T15:38:55;27.40;70.40
22416;DHT22;12204;50.600;4.608;2023-07-09T15:44:00;27.40;70.20
22416;DHT22;12204;50.600;4.608;2023-07-09T15:49:04;27.50;70.10
22416;DHT22;12204;50.600;4.608;2023-07-09T15:54:14;27.60;69.90
22416;DHT22;12204;50.600;4.608;2023-07-09T15:59:27;27.60;69.80
22416;DHT22;12204;50.600;4.608;2023-07-09T16:04:32;27.60;69.70
22416;DHT22;12204;50.600;4.608;2023-07-09T16:09:35;27.70;69.50
22416;DHT22;12204;50.600;4.608;2023-07-09T16:14:42;27.70;69.50
22416;DHT22;12204;50.600;4.608;2023-07-09T16:19:45;27.70;69.40
22416;DHT22;12204;50.600;4.608;2023-07-09T16:24:49;27.70;69.30
22416;DHT22;12204;50.600;4.608;2023-07-09T16:29:53;27.80;69.30
22416;DHT22;12204;50.600;4.608;2023-07-09T16:34:57;27.70;69.10
22416;DHT22;12204;50.600;4.608;2023-07-09T16:40:00;27.80;69.10
22416;DHT22;12204;50.600;4.608;2023-07-09T16:45:07;27.80;69.10
22416;DHT22;12204;50.600;4.608;2023-07-09T16:50:13;27.80;69.00
22416;DHT22;12204;50.600;4.608;2023-07-09T16:55:20;27.80;69.10
22416;DHT22;12204;50.600;4.608;2023-07-09T17:00:31;27.80;69.20
22416;DHT22;12204;50.600;4.608;2023-07-09T17:05:37;27.80;69.30
22416;DHT22;12204;50.600;4.608;2023-07-09T17:10:43;27.70;69.30
22416;DHT22;12204;50.600;4.608;2023-07-09T17:15:50;27.80;69.30
22416;DHT22;12204;50.600;4.608;2023-07-09T17:20:55;27.80;70.10
22416;DHT22;12204;50.600;4.608;2023-07-09T17:26:02;27.80;71.30
22416;DHT22;12204;50.600;4.608;2023-07-09T17:31:07;27.80;72.20
22416;DHT22;12204;50.600;4.608;2023-07-09T17:36:12;27.80;73.50
22416;DHT22;12204;50.600;4.608;2023-07-09T17:41:18;27.80;73.70
22416;DHT22;12204;50.600;4.608;2023-07-09T17:46:23;27.70;74.00
22416;DHT22;12204;50.600;4.608;2023-07-09T17:51:26;27.60;74.50
22416;DHT22;12204;50.600;4.608;2023-07-09T17:56:30;27.60;74.10
22416;DHT22;12204;50.600;4.608;2023-07-09T18:01:35;27.60;72.90
22416;DHT22;12204;50.600;4.608;2023-07-09T18:06:38;27.60;72.10
22416;DHT22;12204;50.600;4.608;2023-07-09T18:11:51;27.60;71.90
22416;DHT22;12204;50.600;4.608;2023-07-09T18:16:57;27.60;72.40
22416;DHT22;12204;50.600;4.608;2023-07-09T18:22:05;27.50;72.00
22416;DHT22;12204;50.600;4.608;2023-07-09T18:27:23;27.50;71.70
22416;DHT22;12204;50.600;4.608;2023-07-09T18:32:30;27.50;71.60
22416;DHT22;12204;50.600;4.608;2023-07-09T18:37:36;27.40;71.10
22416;DHT22;12204;50.600;4.608;2023-07-09T18:42:39;27.40;70.60
22416;DHT22;12204;50.600;4.608;2023-07-09T18:47:44;27.40;70.30
22416;DHT22;12204;50.600;4.608;2023-07-09T18:52:49;27.30;69.80
22416;DHT22;12204;50.600;4.608;2023-07-09T18:57:54;27.30;69.60
22416;DHT22;12204;50.600;4.608;2023-07-09T19:03:00;27.20;69.10
22416;DHT22;12204;50.600;4.608;2023-07-09T19:08:17;27.20;68.80
22416;DHT22;12204;50.600;4.608;2023-07-09T19:13:23;27.20;68.30
22416;DHT22;12204;50.600;4.608;2023-07-09T19:18:30;27.20;68.20
22416;DHT22;12204;50.600;4.608;2023-07-09T19:23:37;27.20;68.00
22416;DHT22;12204;50.600;4.608;2023-07-09T19:28:40;27.20;67.60
22416;DHT22;12204;50.600;4.608;2023-07-09T19:33:45;27.10;66.80
22416;DHT22;12204;50.600;4.608;2023-07-09T19:38:50;27.10;67.10
22416;DHT22;12204;50.600;4.608;2023-07-09T19:43:54;27.10;66.30
22416;DHT22;12204;50.600;4.608;2023-07-09T19:48:59;27.10;66.90
22416;DHT22;12204;50.600;4.608;2023-07-09T19:54:10;27.00;65.90
22416;DHT22;12204;50.600;4.608;2023-07-09T19:59:17;27.00;65.60
22416;DHT22;12204;50.600;4.608;2023-07-09T20:04:22;27.00;65.40
22416;DHT22;12204;50.600;4.608;2023-07-09T20:09:28;27.00;65.20
22416;DHT22;12204;50.600;4.608;2023-07-09T20:14:31;27.00;64.90
22416;DHT22;12204;50.600;4.608;2023-07-09T20:19:36;27.00;64.80
22416;DHT22;12204;50.600;4.608;2023-07-09T20:24:40;27.00;64.70
22416;DHT22;12204;50.600;4.608;2023-07-09T20:29:45;27.00;64.70
22416;DHT22;12204;50.600;4.608;2023-07-09T20:34:53;26.90;64.50
22416;DHT22;12204;50.600;4.608;2023-07-09T20:39:57;26.90;64.40
22416;DHT22;12204;50.600;4.608;2023-07-09T20:45:00;26.90;64.30
22416;DHT22;12204;50.600;4.608;2023-07-09T20:50:10;26.90;64.50
22416;DHT22;12204;50.600;4.608;2023-07-09T20:55:17;26.90;64.60
22416;DHT22;12204;50.600;4.608;2023-07-09T21:00:22;26.90;64.70
22416;DHT22;12204;50.600;4.608;2023-07-09T21:05:27;27.00;64.90
22416;DHT22;12204;50.600;4.608;2023-07-09T21:10:31;26.90;64.80
22416;DHT22;12204;50.600;4.608;2023-07-09T21:15:34;27.00;64.90
22416;DHT22;12204;50.600;4.608;2023-07-09T21:20:39;27.00;65.20
22416;DHT22;12204;50.600;4.608;2023-07-09T21:25:43;27.00;65.10
22416;DHT22;12204;50.600;4.608;2023-07-09T21:30:46;27.00;65.50
22416;DHT22;12204;50.600;4.608;2023-07-09T21:35:51;27.00;65.60
22416;DHT22;12204;50.600;4.608;2023-07-09T21:40:57;27.00;65.70
22416;DHT22;12204;50.600;4.608;2023-07-09T21:46:01;27.00;65.60
22416;DHT22;12204;50.600;4.608;2023-07-09T21:51:10;27.00;65.30
22416;DHT22;12204;50.600;4.608;2023-07-09T21:56:13;27.00;65.60
22416;DHT22;12204;50.600;4.608;2023-07-09T22:01:18;27.00;65.50
22416;DHT22;12204;50.600;4.608;2023-07-09T22:06:23;27.00;65.40
22416;DHT22;12204;50.600;4.608;2023-07-09T22:11:27;27.00;65.40
22416;DHT22;12204;50.600;4.608;2023-07-09T22:16:31;27.00;64.70
22416;DHT22;12204;50.600;4.608;2023-07-09T22:21:36;27.00;65.20
22416;DHT22;12204;50.600;4.608;2023-07-09T22:26:41;27.00;65.50
22416;DHT22;12204;50.600;4.608;2023-07-09T22:31:45;27.00;65.50
22416;DHT22;12204;50.600;4.608;2023-07-09T22:36:50;26.90;65.40
22416;DHT22;12204;50.600;4.608;2023-07-09T22:41:54;26.90;65.80
22416;DHT22;12204;50.600;4.608;2023-07-09T22:46:58;27.00;66.60
22416;DHT22;12204;50.600;4.608;2023-07-09T22:52:09;26.90;66.40
22416;DHT22;12204;50.600;4.608;2023-07-09T22:57:13;26.90;66.20
22416;DHT22;12204;50.600;4.608;2023-07-09T23:02:16;26.90;65.90
22416;DHT22;12204;50.600;4.608;2023-07-09T23:07:22;26.90;65.80
22416;DHT22;12204;50.600;4.608;2023-07-09T23:12:26;26.90;65.50
22416;DHT22;12204;50.600;4.608;2023-07-09T23:17:29;26.90;65.50
22416;DHT22;12204;50.600;4.608;2023-07-09T23:22:37;26.90;65.30
22416;DHT22;12204;50.600;4.608;2023-07-09T23:27:41;26.90;65.30
22416;DHT22;12204;50.600;4.608;2023-07-09T23:32:45;26.90;65.40
22416;DHT22;12204;50.600;4.608;2023-07-09T23:37:51;26.90;65.50
22416;DHT22;12204;50.600;4.608;2023-07-09T23:42:55;26.90;64.70
22416;DHT22;12204;50.600;4.608;2023-07-09T23:48:03;26.90;64.60
22416;DHT22;12204;50.600;4.608;2023-07-09T23:53:21;26.80;64.50
22416;DHT22;12204;50.600;4.608;2023-07-09T23:58:31;26.80;64.40
